createdAt,value
2018-04-18T00:00:55.444Z,15.50
2018-04-18T00:03:23.728Z,13.03
2018-04-18T00:05:51.220Z,14.10
2018-04-18T00:08:18.769Z,16.00
2018-04-18T00:10:46.264Z,18.57
2018-04-18T00:13:13.760Z,16.23
2018-04-18T00:15:41.276Z,16.60
2018-04-18T00:18:08.773Z,18.00
2018-04-18T00:20:36.301Z,15.27
2018-04-18T00:23:03.802Z,16.77
2018-04-18T00:25:31.325Z,14.53
2018-04-18T00:27:59.636Z,18.10
2018-04-18T00:30:27.164Z,17.50
2018-04-18T00:32:55.461Z,17.60
2018-04-18T00:35:22.988Z,17.77
2018-04-18T00:37:51.247Z,24.80
2018-04-18T00:40:18.762Z,19.33
2018-04-18T00:42:46.260Z,19.07
2018-04-18T00:45:15.400Z,19.00
2018-04-18T00:47:43.688Z,20.43
2018-04-18T00:50:11.208Z,21.37
2018-04-18T00:52:39.472Z,21.70
2018-04-18T00:55:06.983Z,17.30
2018-04-18T00:57:34.481Z,16.73
2018-04-18T01:00:02.004Z,18.80
2018-04-18T01:02:29.551Z,18.33
2018-04-18T01:04:57.065Z,24.30
2018-04-18T01:07:24.670Z,18.20
2018-04-18T01:09:52.189Z,19.10
2018-04-18T01:12:19.812Z,20.63
2018-04-18T01:14:47.309Z,19.20
2018-04-18T01:17:14.820Z,17.00
2018-04-18T01:19:42.318Z,19.50
2018-04-18T01:22:10.600Z,17.57
2018-04-18T01:24:38.092Z,17.40
2018-04-18T01:27:05.608Z,19.20
2018-04-18T01:29:33.105Z,18.23
2018-04-18T01:32:00.668Z,16.13
2018-04-18T01:34:28.551Z,17.83
2018-04-18T01:36:56.060Z,17.80
2018-04-18T01:39:24.365Z,18.13
2018-04-18T01:41:51.885Z,20.67
2018-04-18T01:44:19.383Z,17.30
2018-04-18T01:46:46.919Z,17.30
2018-04-18T01:49:21.932Z,20.83
2018-04-18T01:51:49.456Z,17.60
2018-04-18T01:54:16.952Z,19.10
2018-04-18T01:56:44.489Z,15.03
2018-04-18T01:59:11.985Z,22.10
2018-04-18T02:01:39.481Z,18.50
2018-04-18T02:04:06.999Z,16.50
2018-04-18T02:06:34.501Z,15.43
2018-04-18T02:09:02.017Z,21.50
2018-04-18T02:11:30.285Z,19.23
2018-04-18T02:13:59.409Z,19.07
2018-04-18T02:16:27.702Z,16.20
2018-04-18T02:18:55.244Z,15.30
2018-04-18T02:21:22.743Z,18.63
2018-04-18T02:23:50.252Z,21.00
2018-04-18T02:26:18.511Z,15.50
2018-04-18T02:28:46.789Z,19.63
2018-04-18T02:31:15.052Z,18.90
2018-04-18T02:33:42.568Z,21.33
2018-04-18T02:36:10.070Z,14.07
2018-04-18T02:38:39.099Z,16.80
2018-04-18T02:41:06.595Z,19.70
2018-04-18T02:43:34.090Z,16.63
2018-04-18T02:46:02.374Z,18.03
2018-04-18T02:48:30.651Z,18.10
2018-04-18T02:50:58.940Z,17.70
2018-04-18T02:53:26.444Z,15.80
2018-04-18T02:55:53.961Z,16.67
2018-04-18T02:58:21.463Z,16.63
2018-04-18T03:00:48.981Z,15.83
2018-04-18T03:03:16.480Z,13.60
2018-04-18T03:05:44.007Z,12.20
2018-04-18T03:08:11.516Z,11.70
2018-04-18T03:10:39.820Z,12.30
2018-04-18T03:13:08.092Z,12.37
2018-04-18T03:15:36.353Z,11.97
2018-04-18T03:18:04.657Z,13.50
2018-04-18T03:20:32.152Z,12.17
2018-04-18T03:22:59.660Z,12.83
2018-04-18T03:25:27.943Z,12.37
2018-04-18T03:27:55.461Z,14.23
2018-04-18T03:30:22.948Z,9.87
2018-04-18T03:32:51.221Z,10.17
2018-04-18T03:35:19.517Z,12.03
2018-04-18T03:37:47.072Z,10.60
2018-04-18T03:40:14.579Z,11.00
2018-04-18T03:42:42.117Z,13.63
2018-04-18T03:45:09.649Z,12.90
2018-04-18T03:47:37.157Z,11.57
2018-04-18T03:50:04.668Z,12.43
2018-04-18T03:52:32.164Z,11.47
2018-04-18T03:54:59.673Z,11.50
2018-04-18T03:57:27.964Z,12.57
2018-04-18T03:59:55.479Z,18.17
2018-04-18T04:02:22.972Z,13.70
2018-04-18T04:04:50.493Z,11.60
2018-04-18T04:07:18.757Z,14.50
2018-04-18T04:09:46.268Z,14.30
2018-04-18T04:12:13.821Z,13.07
2018-04-18T04:14:41.332Z,14.20
2018-04-18T04:17:20.644Z,12.30
2018-04-18T04:20:00.113Z,18.87
2018-04-18T04:22:40.316Z,10.53
2018-04-18T04:25:07.848Z,13.43
2018-04-18T04:27:36.108Z,10.70
2018-04-18T04:30:03.643Z,14.83
2018-04-18T04:32:31.158Z,12.33
2018-04-18T04:34:58.676Z,16.80
2018-04-18T04:37:26.176Z,13.00
2018-04-18T04:39:53.692Z,17.40
2018-04-18T04:42:21.190Z,11.43
2018-04-18T04:44:48.711Z,12.83
2018-04-18T04:47:16.980Z,13.27
2018-04-18T04:49:44.517Z,12.57
2018-04-18T04:52:12.049Z,15.37
2018-04-18T04:54:39.562Z,13.53
2018-04-18T04:57:07.533Z,20.27
2018-04-18T04:59:35.788Z,12.83
2018-04-18T05:02:03.304Z,16.27
2018-04-18T05:04:31.133Z,18.50
2018-04-18T05:06:58.653Z,14.57
2018-04-18T05:09:26.152Z,13.70
2018-04-18T05:11:54.437Z,13.73
2018-04-18T05:14:22.705Z,15.70
2018-04-18T05:16:50.212Z,12.80
2018-04-18T05:19:17.713Z,12.60
2018-04-18T05:21:45.225Z,13.87
2018-04-18T05:24:12.725Z,15.70
2018-04-18T05:26:40.281Z,12.30
2018-04-18T05:29:07.760Z,11.50
2018-04-18T05:31:36.044Z,14.00
2018-04-18T05:34:04.336Z,14.77
2018-04-18T05:36:31.892Z,13.23
2018-04-18T05:39:00.185Z,15.83
2018-04-18T05:41:27.689Z,13.00
2018-04-18T05:43:55.200Z,16.80
2018-04-18T05:46:22.698Z,13.87
2018-04-18T05:48:50.217Z,12.13
2018-04-18T05:51:17.761Z,14.90
2018-04-18T05:53:45.325Z,12.37
2018-04-18T05:56:12.886Z,13.13
2018-04-18T05:58:40.410Z,11.70
2018-04-18T06:01:07.909Z,10.40
2018-04-18T06:03:35.425Z,12.73
2018-04-18T06:06:03.698Z,13.90
2018-04-18T06:08:31.217Z,10.63
2018-04-18T06:10:58.712Z,11.40
2018-04-18T06:13:26.225Z,13.03
2018-04-18T06:15:53.720Z,21.07
2018-04-18T06:18:21.237Z,12.53
2018-04-18T06:20:48.744Z,12.10
2018-04-18T06:23:16.249Z,10.90
2018-04-18T06:25:43.764Z,11.63
2018-04-18T06:28:11.260Z,10.63
2018-04-18T06:30:38.776Z,9.37
2018-04-18T06:33:06.271Z,10.00
2018-04-18T06:35:33.788Z,10.17
2018-04-18T06:38:01.286Z,10.60
2018-04-18T06:40:28.801Z,10.30
2018-04-18T06:42:56.296Z,12.53
2018-04-18T06:45:24.576Z,9.20
2018-04-18T06:47:52.068Z,8.20
2018-04-18T06:50:19.580Z,9.40
2018-04-18T06:52:47.841Z,9.43
2018-04-18T06:55:15.752Z,11.70
2018-04-18T06:57:43.269Z,8.03
2018-04-18T07:00:10.784Z,10.20
2018-04-18T07:02:38.280Z,9.23
2018-04-18T07:05:05.794Z,8.57
2018-04-18T07:07:33.285Z,8.20
2018-04-18T07:10:00.784Z,11.27
2018-04-18T07:12:28.300Z,11.33
2018-04-18T07:14:55.798Z,7.90
2018-04-18T07:17:23.313Z,9.47
2018-04-18T07:19:50.809Z,7.53
2018-04-18T07:22:19.089Z,7.80
2018-04-18T07:24:46.585Z,9.47
2018-04-18T07:27:14.101Z,9.60
2018-04-18T07:29:41.608Z,14.27
2018-04-18T07:32:09.120Z,10.47
2018-04-18T07:34:36.616Z,11.00
2018-04-18T07:37:04.109Z,8.93
2018-04-18T07:39:31.629Z,16.30
2018-04-18T07:41:59.129Z,10.20
2018-04-18T07:44:27.412Z,8.17
2018-04-18T07:46:55.681Z,13.90
2018-04-18T07:49:23.965Z,10.50
2018-04-18T07:51:52.220Z,9.30
2018-04-18T07:54:19.737Z,12.33
2018-04-18T07:56:47.233Z,10.23
2018-04-18T07:59:14.753Z,8.50
2018-04-18T08:01:42.256Z,9.27
2018-04-18T08:04:09.774Z,9.63
2018-04-18T08:06:37.277Z,11.17
2018-04-18T08:09:04.787Z,8.03
2018-04-18T08:11:32.283Z,7.77
2018-04-18T08:13:59.821Z,8.30
2018-04-18T08:16:27.316Z,8.00
2018-04-18T08:18:55.580Z,13.93
2018-04-18T08:21:23.096Z,13.40
2018-04-18T08:23:50.597Z,14.07
2018-04-18T08:26:18.113Z,10.80
2018-04-18T08:28:45.620Z,10.27
2018-04-18T08:31:13.143Z,9.43
2018-04-18T08:33:40.873Z,8.90
2018-04-18T08:36:08.393Z,10.17
2018-04-18T08:38:35.890Z,9.80
2018-04-18T08:41:03.404Z,9.70
2018-04-18T08:43:30.904Z,13.40
2018-04-18T08:45:58.429Z,10.30
2018-04-18T08:48:25.926Z,7.77
2018-04-18T08:50:53.456Z,7.90
2018-04-18T08:53:21.717Z,7.47
2018-04-18T08:55:49.208Z,8.27
2018-04-18T08:58:16.721Z,8.87
2018-04-18T09:00:44.216Z,11.17
2018-04-18T09:03:12.493Z,9.57
2018-04-18T09:05:39.991Z,10.50
2018-04-18T09:08:08.264Z,9.50
2018-04-18T09:10:35.765Z,10.67
2018-04-18T09:13:04.045Z,8.13
2018-04-18T09:15:32.304Z,7.80
2018-04-18T09:17:59.817Z,9.63
2018-04-18T09:20:27.313Z,9.63
2018-04-18T09:22:54.833Z,7.63
2018-04-18T09:25:22.329Z,10.03
2018-04-18T09:27:49.860Z,6.50
2018-04-18T09:30:17.362Z,6.00
2018-04-18T09:32:44.852Z,6.17
2018-04-18T09:35:12.361Z,6.27
2018-04-18T09:37:39.858Z,6.13
2018-04-18T09:40:07.389Z,9.60
2018-04-18T09:42:34.883Z,7.37
2018-04-18T09:45:02.395Z,7.23
2018-04-18T09:47:29.893Z,7.83
2018-04-18T09:49:57.405Z,7.13
2018-04-18T09:52:24.892Z,5.37
2018-04-18T09:54:53.177Z,8.40
2018-04-18T09:57:21.436Z,7.57
2018-04-18T09:59:49.717Z,8.00
2018-04-18T10:02:17.982Z,11.80
2018-04-18T10:04:45.675Z,8.63
2018-04-18T10:07:13.168Z,9.33
2018-04-18T10:09:40.696Z,8.50
2018-04-18T10:12:08.190Z,6.67
2018-04-18T10:14:35.684Z,6.80
2018-04-18T10:17:03.968Z,6.67
2018-04-18T10:19:32.232Z,5.93
2018-04-18T10:21:59.744Z,6.87
2018-04-18T10:24:27.246Z,11.90
2018-04-18T10:26:54.761Z,10.50
2018-04-18T10:29:22.256Z,5.80
2018-04-18T10:31:49.774Z,8.03
2018-04-18T10:34:17.268Z,6.90
2018-04-18T10:36:44.776Z,8.83
2018-04-18T10:39:12.268Z,6.53
2018-04-18T10:41:39.780Z,7.10
2018-04-18T10:44:07.271Z,8.60
2018-04-18T10:46:34.788Z,6.07
2018-04-18T10:49:03.054Z,5.37
2018-04-18T10:51:31.332Z,6.67
2018-04-18T10:53:59.628Z,7.13
2018-04-18T10:56:27.145Z,8.43
2018-04-18T10:58:54.745Z,12.33
2018-04-18T11:01:22.244Z,11.40
2018-04-18T11:03:49.760Z,7.10
2018-04-18T11:06:17.251Z,10.57
2018-04-18T11:08:44.773Z,5.20
2018-04-18T11:11:12.332Z,6.93
2018-04-18T11:13:39.893Z,3.80
2018-04-18T11:16:07.401Z,7.07
2018-04-18T11:18:35.009Z,9.30
2018-04-18T11:21:02.510Z,4.63
2018-04-18T11:23:30.033Z,8.80
2018-04-18T11:25:57.584Z,5.63
2018-04-18T11:28:25.096Z,7.60
2018-04-18T11:30:52.589Z,7.20
2018-04-18T11:33:20.869Z,5.07
2018-04-18T11:35:49.128Z,6.70
2018-04-18T11:38:16.710Z,4.30
2018-04-18T11:40:44.204Z,8.60
2018-04-18T11:43:11.701Z,11.37
2018-04-18T11:45:39.213Z,7.30
2018-04-18T11:48:06.745Z,10.60
2018-04-18T11:50:34.261Z,11.90
2018-04-18T11:53:01.752Z,9.03
2018-04-18T11:55:30.029Z,10.87
2018-04-18T11:57:58.289Z,9.03
2018-04-18T12:00:26.580Z,10.00
2018-04-18T12:02:54.845Z,9.23
2018-04-18T12:05:23.128Z,10.03
2018-04-18T12:07:51.393Z,12.03
2018-04-18T12:10:19.681Z,12.13
2018-04-18T12:12:47.968Z,11.03
2018-04-18T12:15:15.495Z,9.83
2018-04-18T12:17:42.993Z,8.90
2018-04-18T12:20:10.480Z,7.90
2018-04-18T12:22:37.990Z,7.97
2018-04-18T12:25:06.249Z,7.10
2018-04-18T12:27:33.756Z,8.10
2018-04-18T12:30:01.297Z,6.40
2018-04-18T12:32:28.856Z,6.73
2018-04-18T12:34:56.350Z,8.53
2018-04-18T12:37:23.860Z,9.20
2018-04-18T12:39:52.120Z,5.87
2018-04-18T12:42:20.404Z,7.50
2018-04-18T12:44:48.660Z,8.10
2018-04-18T12:47:16.177Z,9.83
2018-04-18T12:49:43.717Z,10.93
2018-04-18T12:52:11.237Z,9.20
2018-04-18T12:54:38.733Z,9.60
2018-04-18T12:57:06.284Z,7.73
2018-04-18T12:59:33.803Z,9.13
2018-04-18T13:02:01.310Z,5.93
2018-04-18T13:04:28.819Z,5.00
2018-04-18T13:06:56.312Z,7.37
2018-04-18T13:09:24.596Z,12.70
2018-04-18T13:11:52.157Z,8.47
2018-04-18T13:14:19.713Z,6.03
2018-04-18T13:16:47.268Z,9.93
2018-04-18T13:19:14.781Z,10.40
2018-04-18T13:21:42.283Z,7.43
2018-04-18T13:24:09.792Z,7.40
2018-04-18T13:26:37.301Z,7.57
2018-04-18T13:29:04.812Z,5.20
2018-04-18T13:31:32.305Z,8.30
2018-04-18T13:34:00.572Z,13.97
2018-04-18T13:36:28.881Z,5.77
2018-04-18T13:38:56.376Z,5.80
2018-04-18T13:41:23.893Z,9.03
2018-04-18T13:43:51.388Z,7.83
2018-04-18T13:46:18.905Z,3.40
2018-04-18T13:48:46.465Z,4.23
2018-04-18T13:51:13.977Z,4.87
2018-04-18T13:53:41.476Z,4.03
2018-04-18T13:56:09.041Z,4.43
2018-04-18T13:58:36.544Z,6.40
2018-04-18T14:01:04.059Z,6.53
2018-04-18T14:03:31.570Z,5.90
2018-04-18T14:05:59.168Z,3.50
2018-04-18T14:08:27.449Z,5.53
2018-04-18T14:10:55.006Z,4.30
2018-04-18T14:13:22.516Z,6.03
2018-04-18T14:15:50.013Z,5.20
2018-04-18T14:18:18.292Z,4.47
2018-04-18T14:20:46.557Z,8.23
2018-04-18T14:23:14.853Z,8.33
2018-04-18T14:25:42.415Z,9.10
2018-04-18T14:28:09.928Z,4.33
2018-04-18T14:30:37.426Z,4.97
2018-04-18T14:33:04.988Z,4.27
2018-04-18T14:35:32.541Z,5.67
2018-04-18T14:38:00.821Z,4.90
2018-04-18T14:40:28.318Z,4.43
2018-04-18T14:42:55.833Z,12.53
2018-04-18T14:45:24.121Z,9.00
2018-04-18T14:47:51.668Z,6.10
2018-04-18T14:50:19.164Z,8.90
2018-04-18T14:52:46.691Z,9.57
2018-04-18T14:55:14.244Z,9.40
2018-04-18T14:57:41.817Z,12.23
2018-04-18T15:00:09.373Z,9.20
2018-04-18T15:02:36.921Z,9.23
2018-04-18T15:05:04.484Z,7.90
2018-04-18T15:07:32.044Z,8.13
2018-04-18T15:09:59.927Z,14.63
2018-04-18T15:12:27.420Z,9.90
2018-04-18T15:14:54.932Z,11.40
2018-04-18T15:17:22.485Z,8.40
2018-04-18T15:19:50.040Z,12.37
2018-04-18T15:22:17.536Z,9.47
2018-04-18T15:24:45.160Z,10.37
2018-04-18T15:27:12.724Z,9.23
2018-04-18T15:29:40.244Z,13.37
2018-04-18T15:32:07.747Z,11.73
2018-04-18T15:34:35.245Z,7.13
2018-04-18T15:37:02.773Z,8.57
2018-04-18T15:39:30.272Z,8.70
2018-04-18T15:41:57.789Z,11.10
2018-04-18T15:44:25.288Z,13.40
2018-04-18T15:46:52.883Z,11.77
2018-04-18T15:49:21.144Z,7.80
2018-04-18T15:51:49.441Z,8.33
2018-04-18T15:54:17.002Z,9.10
2018-04-18T15:56:44.520Z,9.93
2018-04-18T15:59:12.012Z,13.30
2018-04-18T16:01:40.289Z,11.43
2018-04-18T16:04:08.549Z,8.70
2018-04-18T16:06:36.833Z,8.40
2018-04-18T16:09:05.092Z,9.47
2018-04-18T16:11:32.676Z,9.43
2018-04-18T16:14:00.176Z,14.40
2018-04-18T16:16:28.019Z,7.83
2018-04-18T16:18:55.560Z,8.97
2018-04-18T16:21:23.445Z,10.43
2018-04-18T16:23:50.941Z,8.13
2018-04-18T16:26:18.459Z,14.00
2018-04-18T16:28:46.004Z,9.97
2018-04-18T16:31:13.500Z,7.87
2018-04-18T16:33:41.016Z,11.13
2018-04-18T16:36:08.580Z,10.10
2018-04-18T16:38:36.099Z,8.30
2018-04-18T16:41:03.595Z,10.20
2018-04-18T16:43:31.152Z,7.17
2018-04-18T16:45:58.717Z,10.43
2018-04-18T16:48:26.236Z,11.90
2018-04-18T16:50:53.732Z,13.67
2018-04-18T16:53:21.245Z,8.43
2018-04-18T16:55:48.744Z,7.53
2018-04-18T16:58:16.261Z,8.53
2018-04-18T17:00:43.756Z,7.20
2018-04-18T17:03:12.036Z,13.80
2018-04-18T17:05:39.542Z,12.10
2018-04-18T17:08:07.072Z,12.10
2018-04-18T17:10:34.612Z,16.37
2018-04-18T17:13:02.109Z,9.60
2018-04-18T17:15:29.733Z,14.97
2018-04-18T17:17:57.240Z,8.50
2018-04-18T17:20:24.756Z,14.10
2018-04-18T17:22:52.259Z,12.67
2018-04-18T17:25:19.865Z,11.20
2018-04-18T17:27:47.377Z,17.77
2018-04-18T17:30:14.893Z,11.13
2018-04-18T17:32:42.388Z,11.47
2018-04-18T17:35:10.222Z,9.90
2018-04-18T17:37:37.723Z,11.20
2018-04-18T17:40:05.236Z,12.13
2018-04-18T17:42:32.781Z,13.87
2018-04-18T17:45:00.296Z,16.73
2018-04-18T17:49:48.568Z,11.20
2018-04-18T17:52:16.069Z,13.20
2018-04-18T17:54:43.573Z,10.33
2018-04-18T17:57:11.096Z,11.43
2018-04-18T17:59:38.587Z,14.50
2018-04-18T18:02:06.097Z,9.80
2018-04-18T18:04:33.601Z,10.53
2018-04-18T18:07:01.113Z,7.90
2018-04-18T18:09:28.608Z,13.73
2018-04-18T18:11:56.201Z,12.27
2018-04-18T18:14:24.465Z,10.60
2018-04-18T18:16:51.976Z,11.37
2018-04-18T18:19:19.469Z,9.20
2018-04-18T18:21:46.983Z,12.57
2018-04-18T18:24:14.483Z,14.33
2018-04-18T18:26:41.991Z,8.27
2018-04-18T18:29:09.489Z,9.87
2018-04-18T18:31:37.044Z,13.90
2018-04-18T18:34:04.526Z,11.13
2018-04-18T18:36:32.051Z,12.17
2018-04-18T18:38:59.560Z,12.67
2018-04-18T18:41:27.845Z,10.27
2018-04-18T18:43:56.112Z,8.33
2018-04-18T18:46:24.410Z,10.77
2018-04-18T18:48:51.913Z,9.07
2018-04-18T18:51:19.424Z,9.30
2018-04-18T18:53:46.925Z,8.77
2018-04-18T18:56:14.421Z,10.13
2018-04-18T18:58:42.714Z,15.20
2018-04-18T19:01:10.210Z,15.97
2018-04-18T19:03:37.726Z,12.87
2018-04-18T19:06:05.221Z,10.80
2018-04-18T19:08:32.737Z,12.07
2018-04-18T19:11:01.009Z,12.30
2018-04-18T19:13:29.289Z,10.83
2018-04-18T19:15:57.548Z,9.73
2018-04-18T19:18:25.057Z,9.60
2018-04-18T19:20:52.552Z,17.33
2018-04-18T19:23:20.069Z,13.97
2018-04-18T19:25:47.564Z,10.57
2018-04-18T19:28:15.111Z,14.10
2018-04-18T19:30:42.589Z,13.03
2018-04-18T19:33:10.105Z,12.20
2018-04-18T19:35:37.600Z,13.60
2018-04-18T19:38:05.113Z,10.13
2018-04-18T19:40:32.760Z,9.30
2018-04-18T19:43:00.280Z,12.50
2018-04-18T19:45:28.592Z,10.47
2018-04-18T19:47:56.092Z,15.07
2018-04-18T19:50:23.613Z,14.67
2018-04-18T19:52:51.164Z,11.20
2018-04-18T19:55:18.697Z,15.40
2018-04-18T19:57:46.200Z,19.10
2018-04-18T20:00:13.714Z,12.07
2018-04-18T20:02:41.209Z,11.77
2018-04-18T20:05:08.733Z,13.53
2018-04-18T20:07:37.003Z,12.73
2018-04-18T20:10:04.525Z,14.63
2018-04-18T20:12:32.025Z,14.33
2018-04-18T20:15:00.308Z,12.40
2018-04-18T20:17:28.569Z,12.63
2018-04-18T20:19:56.162Z,12.63
2018-04-18T20:22:23.702Z,16.70
2018-04-18T20:24:51.281Z,13.63
2018-04-18T20:27:18.776Z,12.40
2018-04-18T20:29:46.272Z,14.70
2018-04-18T20:32:14.561Z,12.43
2018-04-18T20:34:42.828Z,14.57
2018-04-18T20:37:11.104Z,14.13
2018-04-18T20:39:39.371Z,12.10
2018-04-18T20:42:07.672Z,12.67
2018-04-18T20:44:35.169Z,10.20
2018-04-18T20:47:02.788Z,11.90
2018-04-18T20:49:30.356Z,11.80
2018-04-18T20:51:57.872Z,11.37
2018-04-18T20:54:25.382Z,12.27
2018-04-18T20:56:52.900Z,12.20
2018-04-18T20:59:20.401Z,13.27
2018-04-18T21:01:47.942Z,11.57
2018-04-18T21:04:15.452Z,16.10
2018-04-18T21:06:43.060Z,15.20
2018-04-18T21:09:10.552Z,13.97
2018-04-18T21:11:38.068Z,13.53
2018-04-18T21:14:06.333Z,15.93
2018-04-18T21:16:34.625Z,12.87
2018-04-18T21:19:02.125Z,17.17
2018-04-18T21:21:29.645Z,14.60
2018-04-18T21:23:57.200Z,12.40
2018-04-18T21:26:24.695Z,19.10
2018-04-18T21:28:52.209Z,12.63
2018-04-18T21:31:20.467Z,13.80
2018-04-18T21:33:47.980Z,11.30
2018-04-18T21:36:15.481Z,11.27
2018-04-18T21:38:43.077Z,11.77
2018-04-18T21:41:10.578Z,10.13
2018-04-18T21:43:38.099Z,14.20
2018-04-18T21:46:05.644Z,10.43
2018-04-18T21:48:33.249Z,19.17
2018-04-18T21:51:00.724Z,15.57
2018-04-18T21:53:29.041Z,15.97
2018-04-18T21:55:56.701Z,13.40
2018-04-18T21:58:24.233Z,15.50
2018-04-18T22:00:51.728Z,13.53
2018-04-18T22:03:19.229Z,11.70
2018-04-18T22:05:46.741Z,12.10
2018-04-18T22:08:14.236Z,13.70
2018-04-18T22:10:41.750Z,14.07
2018-04-18T22:13:09.245Z,13.30
2018-04-18T22:15:36.765Z,15.00
2018-04-18T22:18:04.324Z,15.63
2018-04-18T22:20:31.886Z,15.10
2018-04-18T22:22:59.384Z,19.53
2018-04-18T22:25:26.995Z,15.23
2018-04-18T22:27:55.256Z,17.40
2018-04-18T22:30:23.544Z,15.20
2018-04-18T22:32:51.804Z,15.63
2018-04-18T22:35:20.087Z,21.03
2018-04-18T22:37:48.354Z,17.13
2018-04-18T22:40:16.657Z,16.20
2018-04-18T22:42:44.230Z,17.60
2018-04-18T22:45:11.749Z,18.30
2018-04-18T22:47:40.983Z,13.07
2018-04-18T22:50:09.493Z,13.73
2018-04-18T22:52:37.007Z,16.20
2018-04-18T22:55:04.501Z,17.23
2018-04-18T22:57:32.015Z,19.37
2018-04-18T23:00:00.301Z,15.60
2018-04-18T23:02:27.874Z,22.07
2018-04-18T23:04:55.376Z,13.57
2018-04-18T23:07:22.910Z,13.97
2018-04-18T23:09:50.444Z,17.23
2018-04-18T23:12:17.960Z,17.50
2018-04-18T23:14:46.281Z,16.43
2018-04-18T23:17:13.796Z,16.13
2018-04-18T23:19:41.305Z,14.23
2018-04-18T23:22:08.820Z,15.67
2018-04-18T23:24:36.316Z,14.20
2018-04-18T23:27:03.828Z,18.30
2018-04-18T23:29:31.326Z,17.20
2018-04-18T23:31:58.849Z,20.70
2018-04-18T23:34:26.349Z,11.63
2018-04-18T23:36:53.877Z,13.57
2018-04-18T23:39:22.142Z,20.13
2018-04-18T23:41:49.678Z,11.83
2018-04-18T23:44:17.186Z,12.53
2018-04-18T23:46:44.681Z,14.20
2018-04-18T23:49:12.196Z,17.57
2018-04-18T23:51:40.468Z,12.03
2018-04-18T23:54:08.749Z,15.37
2018-04-18T23:56:37.008Z,12.57
2018-04-18T23:59:05.298Z,12.43
